Time;durP1;ratioP1;P1;durP2;ratioP2;P2;SDS_P1;SDS_P2;PMS_P1;PMS_P2;Temp;Humidity;BMP_temperature;BMP_pressure;BME280_temperature;BME280_humidity;BME280_pressure;Samples;Min_cycle;Max_cycle;Signal;HPM_P1;HPM_P2
2022/04/08 00:00:27;;;;;;;;;1.00;0.00;;;;;9.07;100.00;100114.53;6313872;22;44862;-81
2022/04/08 00:02:53;;;;;;;;;0.00;0.00;;;;;9.08;100.00;100120.66;6310025;22;45400;-80
2022/04/08 00:05:18;;;;;;;;;1.00;1.00;;;;;9.05;100.00;100120.91;6307680;22;45349;-82
2022/04/08 00:07:44;;;;;;;;;0.00;0.00;;;;;9.06;100.00;100117.28;6308124;22;44799;-81
2022/04/08 00:10:10;;;;;;;;;2.50;0.75;;;;;9.08;100.00;100112.72;6306714;22;45426;-81
2022/04/08 00:12:35;;;;;;;;;2.00;0.00;;;;;9.12;100.00;100106.25;6306407;22;45335;-81
2022/04/08 00:15:01;;;;;;;;;3.00;1.00;;;;;9.16;100.00;100105.06;6306186;22;45332;-80
2022/04/08 00:17:26;;;;;;;;;1.00;1.00;;;;;9.16;100.00;100121.81;6305231;22;44915;-81
2022/04/08 00:19:52;;;;;;;;;2.00;1.00;;;;;9.16;100.00;100119.16;6305757;22;45356;-80
2022/04/08 00:22:22;;;;;;;;;2.25;0.00;;;;;9.18;100.00;100106.66;6305723;22;45422;-80
2022/04/08 00:24:47;;;;;;;;;1.40;0.00;;;;;9.19;100.00;100097.75;6305610;22;44794;-81
2022/04/08 00:27:13;;;;;;;;;0.75;0.75;;;;;9.19;100.00;100092.47;6304952;22;45292;-81
2022/04/08 00:29:38;;;;;;;;;2.25;1.00;;;;;9.24;100.00;100095.63;6308919;22;44745;-81
2022/04/08 00:32:04;;;;;;;;;2.00;0.00;;;;;9.30;100.00;100089.03;6280607;22;45310;-81
2022/04/08 00:34:29;;;;;;;;;0.00;0.00;;;;;9.31;100.00;100098.69;6306362;22;44718;-78
2022/04/08 00:36:55;;;;;;;;;1.00;0.00;;;;;9.34;100.00;100098.47;6304563;22;44801;-80
2022/04/08 00:39:24;;;;;;;;;0.50;0.00;;;;;9.37;100.00;100100.88;6311807;22;45161;-80
2022/04/08 00:41:50;;;;;;;;;0.75;0.75;;;;;9.40;100.00;100102.47;6310380;22;45056;-81
2022/04/08 00:44:17;;;;;;;;;1.50;0.75;;;;;9.45;100.00;100097.69;6309436;22;45395;-81
2022/04/08 00:46:43;;;;;;;;;0.00;0.00;;;;;9.38;100.00;100089.34;6306542;22;45249;-80
2022/04/08 00:49:09;;;;;;;;;1.75;1.00;;;;;9.46;100.00;100086.13;6305983;22;44860;-81
2022/04/08 00:51:35;;;;;;;;;0.75;0.75;;;;;9.47;100.00;100085.16;6304925;22;45169;-82
2022/04/08 00:54:02;;;;;;;;;2.00;0.00;;;;;9.45;100.00;100079.97;6305487;22;45239;-80
2022/04/08 00:56:31;;;;;;;;;3.00;0.00;;;;;9.50;100.00;100083.13;6307170;22;45385;-80
2022/04/08 00:58:58;;;;;;;;;2.00;0.25;;;;;9.51;100.00;100071.56;6309580;22;45462;-81
2022/04/08 01:01:24;;;;;;;;;1.80;0.00;;;;;9.52;100.00;100077.72;6282557;22;46622;-80
2022/04/08 01:03:52;;;;;;;;;0.60;0.60;;;;;9.45;100.00;100087.09;6306396;22;45424;-82
2022/04/08 01:06:19;;;;;;;;;0.00;0.00;;;;;9.42;100.00;100088.13;6278366;22;44664;-81
2022/04/08 01:08:46;;;;;;;;;1.00;0.00;;;;;9.44;100.00;100072.13;6306254;22;44777;-80
2022/04/08 01:11:12;;;;;;;;;5.50;0.75;;;;;9.45;100.00;100074.66;6305602;22;45058;-81
2022/04/08 01:13:37;;;;;;;;;0.00;0.00;;;;;9.43;100.00;100066.00;6305239;22;45343;-81
2022/04/08 01:16:05;;;;;;;;;2.00;0.00;;;;;9.42;100.00;100071.38;6306117;22;44717;-81
2022/04/08 01:18:31;;;;;;;;;6.00;0.00;;;;;9.41;100.00;100062.59;6305668;22;45120;-81
2022/04/08 01:20:56;;;;;;;;;1.00;0.00;;;;;9.41;100.00;100067.88;6305446;22;45229;-78
2022/04/08 01:23:23;;;;;;;;;0.00;0.00;;;;;9.39;100.00;100061.88;6305641;22;45285;-81
2022/04/08 01:25:48;;;;;;;;;1.60;1.00;;;;;9.41;100.00;100064.41;6305579;22;44674;-81
2022/04/08 01:28:13;;;;;;;;;3.00;1.25;;;;;9.39;100.00;100067.16;6303888;22;45479;-80
2022/04/08 01:30:40;;;;;;;;;1.75;0.00;;;;;9.35;100.00;100052.44;6281434;22;45109;-80
2022/04/08 01:33:06;;;;;;;;;0.80;0.80;;;;;9.34;100.00;100064.00;6308163;22;45366;-80
2022/04/08 01:35:31;;;;;;;;;0.75;0.75;;;;;9.30;100.00;100065.19;6303573;22;44637;-80
2022/04/08 01:37:56;;;;;;;;;5.50;1.00;;;;;9.30;100.00;100057.22;6306053;22;45455;-79
2022/04/08 01:40:21;;;;;;;;;3.00;1.00;;;;;9.17;100.00;100051.13;6302801;22;46662;-80
2022/04/08 01:42:47;;;;;;;;;2.25;1.00;;;;;9.16;100.00;100052.94;6303544;22;44871;-79
2022/04/08 01:45:13;;;;;;;;;1.00;1.00;;;;;9.19;100.00;100042.13;6310550;22;44793;-80
2022/04/08 01:47:39;;;;;;;;;1.50;1.00;;;;;9.19;100.00;100039.47;6307914;22;44808;-81
2022/04/08 01:50:05;;;;;;;;;2.00;0.50;;;;;9.18;100.00;100034.25;6310767;22;45272;-80
2022/04/08 01:52:31;;;;;;;;;2.00;0.20;;;;;9.13;100.00;100039.88;6305930;22;44803;-80
2022/04/08 01:54:56;;;;;;;;;0.50;0.25;;;;;9.12;100.00;100043.50;6306037;22;45049;-80
2022/04/08 01:57:23;;;;;;;;;1.00;0.00;;;;;9.09;100.00;100033.13;6305461;22;45471;-81
2022/04/08 01:59:50;;;;;;;;;0.00;0.00;;;;;9.12;100.00;100034.72;6305148;22;45206;-80
2022/04/08 02:02:17;;;;;;;;;0.60;0.60;;;;;9.12;100.00;100037.34;6309924;22;44729;-80
2022/04/08 02:04:42;;;;;;;;;2.25;0.75;;;;;9.13;100.00;100037.22;6306392;22;44741;-80
2022/04/08 02:07:07;;;;;;;;;1.00;0.25;;;;;9.13;100.00;100031.09;6305631;22;45178;-81
2022/04/08 02:09:34;;;;;;;;;2.00;0.75;;;;;9.15;100.00;100035.34;6304437;22;45359;-80
2022/04/08 02:12:00;;;;;;;;;0.60;0.40;;;;;9.15;100.00;100039.78;6301698;22;44666;-82
2022/04/08 02:14:26;;;;;;;;;0.25;0.25;;;;;9.14;100.00;100031.00;6304074;22;44716;-81
2022/04/08 02:16:51;;;;;;;;;2.00;1.00;;;;;9.15;100.00;100034.50;6305996;22;44765;-81
2022/04/08 02:19:18;;;;;;;;;1.00;1.00;;;;;9.14;100.00;100033.66;6305589;22;45106;-80
2022/04/08 02:21:44;;;;;;;;;3.00;1.00;;;;;9.16;100.00;100034.38;6304884;22;44724;-80
2022/04/08 02:24:11;;;;;;;;;0.40;0.40;;;;;9.19;100.00;100028.88;6306535;22;44971;-80
2022/04/08 02:26:36;;;;;;;;;1.75;0.00;;;;;9.22;100.00;100019.81;6304682;22;44729;-79
2022/04/08 02:29:02;;;;;;;;;0.25;0.25;;;;;9.22;100.00;100025.97;6305003;22;44936;-80
2022/04/08 02:31:27;;;;;;;;;5.25;1.00;;;;;9.18;100.00;100021.84;6304764;22;44730;-80
2022/04/08 02:33:53;;;;;;;;;4.00;1.00;;;;;9.19;100.00;100012.97;6282156;22;44781;-81
2022/04/08 02:36:18;;;;;;;;;0.00;0.00;;;;;9.19;100.00;100017.41;6306081;22;45387;-81
2022/04/08 02:38:43;;;;;;;;;3.00;0.00;;;;;9.19;100.00;100014.78;6304739;22;45295;-81
2022/04/08 02:41:09;;;;;;;;;0.00;0.00;;;;;9.21;100.00;100020.78;6306816;22;45487;-82
2022/04/08 02:43:34;;;;;;;;;0.00;0.00;;;;;9.21;100.00;100015.50;6307173;22;44917;-80
2022/04/08 02:46:01;;;;;;;;;1.50;1.00;;;;;9.24;100.00;100008.16;6308354;22;45218;-81
2022/04/08 02:48:26;;;;;;;;;4.25;0.75;;;;;9.25;100.00;100007.22;6309853;22;45154;-81
2022/04/08 02:50:51;;;;;;;;;2.75;1.00;;;;;9.24;100.00;99999.38;6311818;22;44598;-80
2022/04/08 02:53:17;;;;;;;;;1.25;0.25;;;;;9.22;100.00;99994.16;6312094;22;45183;-80
2022/04/08 02:55:42;;;;;;;;;0.00;0.00;;;;;9.20;100.00;99998.75;6284842;22;44982;-81
2022/04/08 02:58:07;;;;;;;;;4.50;1.25;;;;;9.26;100.00;99994.78;6280827;22;46868;-81
2022/04/08 03:00:33;;;;;;;;;3.75;1.00;;;;;9.28;100.00;99995.53;6307737;22;45169;-81
2022/04/08 03:02:58;;;;;;;;;0.00;0.00;;;;;9.22;100.00;99994.16;6309660;22;45388;-84
2022/04/08 03:05:23;;;;;;;;;1.00;0.75;;;;;9.26;100.00;99993.00;6315028;22;44795;-82
2022/04/08 03:07:49;;;;;;;;;2.00;0.00;;;;;9.28;100.00;99987.56;6308949;22;45183;-83
2022/04/08 03:10:14;;;;;;;;;1.00;0.00;;;;;9.29;100.00;99980.50;6278432;22;44714;-81
2022/04/08 03:12:40;;;;;;;;;1.00;1.00;;;;;9.30;100.00;99980.38;6304550;22;44812;-82
2022/04/08 03:15:06;;;;;;;;;6.00;0.25;;;;;9.30;100.00;99982.19;6306277;22;45402;-82
2022/04/08 03:17:32;;;;;;;;;3.20;0.00;;;;;9.25;100.00;99979.88;6306139;22;45363;-81
2022/04/08 03:19:57;;;;;;;;;1.00;1.00;;;;;9.29;100.00;99986.63;6306589;22;44745;-82
2022/04/08 03:22:23;;;;;;;;;1.75;1.25;;;;;9.25;100.00;99975.41;6307735;22;45226;-82
2022/04/08 03:24:50;;;;;;;;;2.75;1.00;;;;;9.26;100.00;99976.25;6306924;22;45314;-82
2022/04/08 03:27:17;;;;;;;;;4.00;1.00;;;;;9.29;100.00;99970.72;6306991;22;45146;-82
2022/04/08 03:29:43;;;;;;;;;1.00;1.00;;;;;9.26;100.00;99963.00;6307039;22;44897;-82
2022/04/08 03:32:09;;;;;;;;;3.00;0.25;;;;;9.27;100.00;99969.97;6307294;22;45252;-81
2022/04/08 03:34:34;;;;;;;;;1.75;1.75;;;;;9.22;100.00;99967.66;6308806;22;44760;-80
2022/04/08 03:37:00;;;;;;;;;9.75;8.00;;;;;9.18;100.00;99968.00;6311719;22;47372;-82
2022/04/08 03:39:25;;;;;;;;;1.25;0.00;;;;;9.12;100.00;99965.81;6310369;22;44806;-81
2022/04/08 03:41:51;;;;;;;;;3.00;1.75;;;;;9.05;100.00;99973.38;6308593;22;44756;-82
2022/04/08 03:44:16;;;;;;;;;3.00;1.00;;;;;8.97;100.00;99965.97;6314436;22;44839;-81
2022/04/08 03:46:43;;;;;;;;;6.25;2.50;;;;;8.93;100.00;99966.31;6288150;22;46757;-82
2022/04/08 03:49:14;;;;;;;;;3.50;2.00;;;;;8.87;100.00;99959.66;6306824;22;44695;-82
2022/04/08 03:51:40;;;;;;;;;6.25;3.00;;;;;8.86;100.00;99957.13;6307345;22;44613;-81
2022/04/08 03:54:06;;;;;;;;;5.75;1.00;;;;;8.78;100.00;99955.03;6307685;22;45469;-82
2022/04/08 03:56:32;;;;;;;;;5.50;0.25;;;;;8.78;100.00;99944.44;6309140;22;45251;-81
2022/04/08 03:58:57;;;;;;;;;4.75;3.50;;;;;8.78;100.00;99946.22;6309441;22;44729;-82
2022/04/08 04:01:22;;;;;;;;;1.00;1.00;;;;;8.77;100.00;99933.94;6308157;22;44744;-82
2022/04/08 04:03:48;;;;;;;;;3.00;2.00;;;;;8.75;100.00;99929.63;6309107;22;44808;-83
2022/04/08 04:06:13;;;;;;;;;2.25;2.25;;;;;8.75;100.00;99923.44;6310717;22;45393;-82
2022/04/08 04:08:38;;;;;;;;;4.25;1.00;;;;;8.76;100.00;99919.88;6311352;22;45272;-83
2022/04/08 04:11:04;;;;;;;;;4.25;3.00;;;;;8.73;100.00;99907.69;6291027;22;45389;-82
2022/04/08 04:13:29;;;;;;;;;1.75;1.00;;;;;8.73;100.00;99904.19;6284056;22;45327;-83
2022/04/08 04:15:55;;;;;;;;;1.00;1.00;;;;;8.76;100.00;99903.97;6307781;22;46596;-86
2022/04/08 04:18:20;;;;;;;;;1.00;1.00;;;;;8.75;100.00;99886.38;6317770;22;44760;-86
2022/04/08 04:20:45;;;;;;;;;6.50;3.00;;;;;8.75;100.00;99881.09;6289448;22;44792;-86
2022/04/08 04:23:11;;;;;;;;;1.50;1.00;;;;;8.76;100.00;99877.50;6310617;22;44888;-86
2022/04/08 04:25:36;;;;;;;;;2.50;1.50;;;;;8.77;100.00;99875.69;6315371;22;45110;-86
2022/04/08 04:28:03;;;;;;;;;3.00;3.00;;;;;8.77;100.00;99868.59;6321295;22;45207;-87
2022/04/08 04:30:28;;;;;;;;;1.00;1.00;;;;;8.74;100.00;99858.22;6317928;22;45273;-87
2022/04/08 04:32:55;;;;;;;;;4.25;2.50;;;;;8.77;100.00;99862.44;6288663;22;45243;-86
2022/04/08 04:35:20;;;;;;;;;2.00;2.00;;;;;8.75;100.00;99849.31;6289865;22;45259;-86
2022/04/08 04:37:45;;;;;;;;;1.00;1.00;;;;;8.74;100.00;99843.16;6315855;22;45195;-86
2022/04/08 04:40:12;;;;;;;;;4.25;1.50;;;;;8.76;100.00;99837.78;6288604;22;44657;-87
2022/04/08 04:42:39;;;;;;;;;2.00;2.00;;;;;8.78;100.00;99841.16;6313883;22;45262;-87
2022/04/08 04:45:05;;;;;;;;;1.00;1.00;;;;;8.78;100.00;99827.06;6314232;22;45246;-86
2022/04/08 04:47:30;;;;;;;;;4.00;2.75;;;;;8.82;100.00;99833.84;6308445;22;44769;-87
2022/04/08 04:49:56;;;;;;;;;4.25;3.00;;;;;8.80;100.00;99830.44;6308491;22;44931;-86
2022/04/08 04:52:21;;;;;;;;;2.75;1.50;;;;;8.82;100.00;99817.94;6307839;22;44897;-86
2022/04/08 04:54:46;;;;;;;;;2.00;2.00;;;;;8.81;100.00;99814.44;6308912;22;45367;-87
2022/04/08 04:57:12;;;;;;;;;1.25;1.25;;;;;8.78;100.00;99804.06;6281680;22;44768;-86
2022/04/08 04:59:37;;;;;;;;;3.25;2.25;;;;;8.79;100.00;99805.75;6311992;22;45172;-88
2022/04/08 05:02:03;;;;;;;;;1.25;1.25;;;;;8.80;100.00;99788.06;6313319;22;45130;-85
2022/04/08 05:04:30;;;;;;;;;1.00;1.00;;;;;8.82;100.00;99794.09;6310460;22;45099;-86
2022/04/08 05:06:55;;;;;;;;;4.00;1.00;;;;;8.82;100.00;99784.34;6308636;22;45411;-86
2022/04/08 05:09:20;;;;;;;;;3.50;2.00;;;;;8.82;100.00;99783.50;6311456;22;44755;-86
2022/04/08 05:11:46;;;;;;;;;6.00;1.25;;;;;8.83;100.00;99782.53;6312947;22;45284;-86
2022/04/08 05:14:11;;;;;;;;;2.00;1.50;;;;;8.82;100.00;99772.91;6318784;22;44936;-88
2022/04/08 05:16:36;;;;;;;;;1.50;1.25;;;;;8.83;100.00;99756.91;6326053;22;44724;-86
2022/04/08 05:19:02;;;;;;;;;4.50;3.00;;;;;8.81;100.00;99747.41;6321989;22;44747;-87
2022/04/08 05:21:29;;;;;;;;;5.25;2.75;;;;;8.80;100.00;99749.22;6316181;22;45469;-88
2022/04/08 05:23:55;;;;;;;;;7.50;2.75;;;;;8.82;100.00;99749.94;6310168;22;45181;-83
2022/04/08 05:26:21;;;;;;;;;1.25;1.00;;;;;8.82;100.00;99744.63;6312101;22;45176;-86
2022/04/08 05:28:46;;;;;;;;;4.25;2.50;;;;;8.80;100.00;99743.91;6280740;22;44785;-85
2022/04/08 05:31:12;;;;;;;;;3.25;2.00;;;;;8.82;100.00;99741.13;6280123;22;45499;-86
2022/04/08 05:33:39;;;;;;;;;4.00;2.00;;;;;8.80;100.00;99732.44;6306694;22;45214;-84
2022/04/08 05:36:06;;;;;;;;;3.20;3.20;;;;;8.81;100.00;99739.47;6279798;22;44692;-85
2022/04/08 05:38:31;;;;;;;;;7.75;3.50;;;;;8.85;100.00;99733.81;6279920;22;45372;-85
2022/04/08 05:40:57;;;;;;;;;15.75;12.25;;;;;8.85;100.00;99730.28;6253338;22;44941;-85
2022/04/08 05:43:22;;;;;;;;;6.50;5.00;;;;;8.85;100.00;99720.56;6279970;22;46537;-86
2022/04/08 05:45:47;;;;;;;;;8.75;5.75;;;;;8.85;100.00;99712.63;6281239;22;44748;-86
2022/04/08 05:48:14;;;;;;;;;4.80;4.80;;;;;8.85;100.00;99703.81;6309845;22;45203;-86
2022/04/08 05:50:42;;;;;;;;;4.00;3.00;;;;;8.86;100.00;99708.16;6315322;22;44866;-86
2022/04/08 05:53:08;;;;;;;;;3.00;1.50;;;;;8.84;100.00;99695.03;6282197;22;45294;-87
2022/04/08 05:55:33;;;;;;;;;4.00;3.00;;;;;8.82;100.00;99688.19;6282853;22;44627;-86
2022/04/08 05:57:59;;;;;;;;;6.75;3.50;;;;;8.81;100.00;99686.50;6309062;22;44963;-84
2022/04/08 06:00:24;;;;;;;;;5.25;4.00;;;;;8.80;100.00;99687.44;6282002;22;45659;-87
2022/04/08 06:02:53;;;;;;;;;5.00;3.00;;;;;8.81;100.00;99678.56;6280415;22;45353;-85
2022/04/08 06:05:19;;;;;;;;;3.75;2.25;;;;;8.81;100.00;99673.25;6286374;22;44717;-85
2022/04/08 06:20:50;;;;;;;;;5.00;5.00;;;;;8.69;100.00;99636.16;6151929;23;45244;-86
2022/04/08 06:26:54;;;;;;;;;4.75;4.00;;;;;8.70;100.00;99626.38;6157379;23;45180;-85
2022/04/08 06:38:15;;;;;;;;;;;;;;;;;;;;;
2022/04/08 07:24:28;;;;;;;;;6.50;4.75;;;;;8.49;100.00;99570.66;6343972;22;45206;-86
2022/04/08 07:27:15;;;;;;;;;;;;;;;;;;;;;
2022/04/08 07:29:45;;;;;;;;;2.80;2.20;;;;;8.42;100.00;99546.47;6339311;22;72934;-85
2022/04/08 07:36:12;;;;;;;;;4.25;3.25;;;;;8.47;100.00;99544.31;6312069;22;45151;-85
2022/04/08 07:39:09;;;;;;;;;11.50;3.75;;;;;8.41;100.00;99522.75;6279565;22;45241;-88
2022/04/08 07:42:00;;;;;;;;;7.00;4.50;;;;;8.39;100.00;99525.53;6182198;23;45212;-87
2022/04/08 07:44:26;;;;;;;;;4.00;2.75;;;;;8.37;100.00;99510.75;6181286;23;45524;-87
2022/04/08 07:46:51;;;;;;;;;7.00;4.00;;;;;8.38;100.00;99484.16;6160738;23;45054;-88
2022/04/08 07:49:42;;;;;;;;;3.00;3.00;;;;;8.37;100.00;99466.63;6134332;23;45329;-87
2022/04/08 07:52:11;;;;;;;;;5.00;3.50;;;;;8.35;100.00;99455.25;6137711;23;44771;-86
2022/04/08 07:54:36;;;;;;;;;4.75;3.00;;;;;8.30;100.00;99465.34;6163053;23;45134;-84
2022/04/08 07:57:20;;;;;;;;;5.00;4.00;;;;;8.29;100.00;99476.06;6157586;23;45345;-88
2022/04/08 08:00:20;;;;;;;;;5.00;4.75;;;;;8.23;100.00;99475.59;6128773;23;45033;-86
2022/04/08 08:02:47;;;;;;;;;4.00;3.00;;;;;8.13;100.00;99473.78;6038275;23;45304;-86
2022/04/08 08:05:51;;;;;;;;;3.50;2.50;;;;;8.16;100.00;99465.59;6036720;23;45348;-86
2022/04/08 08:08:20;;;;;;;;;1.50;1.50;;;;;8.16;100.00;99461.13;6050880;23;45456;-85
2022/04/08 08:10:46;;;;;;;;;2.25;2.25;;;;;8.12;100.00;99451.78;6061183;23;46066;-86
2022/04/08 08:13:11;;;;;;;;;3.00;3.00;;;;;8.13;100.00;99442.88;6060964;23;44718;-84
2022/04/08 08:15:36;;;;;;;;;2.75;2.00;;;;;8.15;100.00;99435.66;6059766;23;45042;-83
2022/04/08 08:18:02;;;;;;;;;6.75;3.75;;;;;8.15;100.00;99414.50;6132503;23;45485;-83
2022/04/08 08:20:28;;;;;;;;;4.00;3.00;;;;;8.14;100.00;99409.31;6167228;23;45030;-86
2022/04/08 08:22:53;;;;;;;;;2.00;2.00;;;;;8.06;100.00;99396.69;6169292;23;45221;-87
2022/04/08 08:25:21;;;;;;;;;7.25;3.00;;;;;7.99;100.00;99396.34;6161788;23;44779;-87
2022/04/08 08:27:48;;;;;;;;;2.25;2.25;;;;;7.91;100.00;99392.59;6157404;23;45277;-86
2022/04/08 08:30:16;;;;;;;;;3.75;1.50;;;;;7.72;100.00;99385.25;6132189;23;45148;-87
2022/04/08 08:32:47;;;;;;;;;1.00;1.00;;;;;7.51;100.00;99371.88;6135878;23;44726;-88
2022/04/08 08:35:14;;;;;;;;;3.25;2.00;;;;;7.48;100.00;99377.38;6158843;23;44746;-87
2022/04/08 08:37:41;;;;;;;;;2.00;2.00;;;;;7.47;100.00;99389.75;6159791;23;44898;-87
2022/04/08 08:40:08;;;;;;;;;1.25;1.00;;;;;7.43;100.00;99382.19;6252601;22;46137;-88
2022/04/08 08:42:38;;;;;;;;;4.00;3.00;;;;;7.43;100.00;99379.53;6292240;22;44760;-88
2022/04/08 08:45:14;;;;;;;;;8.75;2.75;;;;;7.44;100.00;99374.13;6293033;22;44714;-87
2022/04/08 08:47:42;;;;;;;;;4.00;3.50;;;;;7.42;100.00;99364.66;6318674;22;44731;-86
2022/04/08 08:50:08;;;;;;;;;4.00;3.00;;;;;7.41;100.00;99379.66;6315929;22;45163;-88
2022/04/08 08:52:34;;;;;;;;;4.00;4.00;;;;;7.44;100.00;99366.19;6321720;22;44592;-86
2022/04/08 08:55:05;;;;;;;;;4.00;3.00;;;;;7.41;100.00;99355.03;6292676;22;44574;-88
2022/04/08 08:57:31;;;;;;;;;5.50;3.00;;;;;7.25;100.00;99343.94;6288563;22;44815;-88
2022/04/08 09:00:15;;;;;;;;;4.25;3.25;;;;;7.22;100.00;99340.59;6282142;22;46221;-87
2022/04/08 09:02:43;;;;;;;;;3.00;1.00;;;;;7.27;100.00;99313.81;6281293;22;44680;-88
2022/04/08 09:05:18;;;;;;;;;3.50;2.25;;;;;7.25;100.00;99315.72;6281889;22;44693;-88
2022/04/08 09:07:54;;;;;;;;;5.00;3.50;;;;;7.29;100.00;99309.25;6280064;22;45397;-86
2022/04/08 09:10:52;;;;;;;;;1.50;1.50;;;;;7.27;100.00;99313.81;6280056;22;46434;-87
2022/04/08 09:13:20;;;;;;;;;3.25;3.00;;;;;7.29;100.00;99319.81;6282016;22;44752;-88
2022/04/08 09:15:59;;;;;;;;;3.50;2.00;;;;;7.37;100.00;99298.13;6284053;22;44607;-88
2022/04/08 09:18:31;;;;;;;;;4.00;3.50;;;;;7.42;100.00;99282.75;6292192;22;45330;-88
2022/04/08 09:21:00;;;;;;;;;4.75;4.00;;;;;7.43;100.00;99282.63;6272143;22;46531;-88
2022/04/08 09:23:28;;;;;;;;;5.25;2.75;;;;;7.41;100.00;99259.94;6326963;22;44747;-87
2022/04/08 09:26:09;;;;;;;;;4.50;3.00;;;;;7.31;100.00;99238.69;6291810;22;44712;-88
2022/04/08 09:28:36;;;;;;;;;1.50;1.50;;;;;7.24;100.00;99241.91;6285510;22;44714;-85
2022/04/08 09:31:03;;;;;;;;;5.50;2.50;;;;;7.17;100.00;99249.47;6285780;22;47039;-87
2022/04/08 09:33:29;;;;;;;;;3.00;2.00;;;;;7.11;100.00;99257.84;6285540;22;44626;-87
2022/04/08 09:35:56;;;;;;;;;4.00;2.50;;;;;7.06;100.00;99271.41;6281699;22;45358;-88
2022/04/08 09:38:25;;;;;;;;;2.50;2.50;;;;;7.04;100.00;99262.75;6280911;22;44901;-87
2022/04/08 09:40:58;;;;;;;;;4.25;3.00;;;;;6.89;100.00;99254.19;6280117;22;45352;-89
2022/04/08 09:43:31;;;;;;;;;2.75;2.00;;;;;6.72;100.00;99264.31;6280804;22;44658;-88
2022/04/08 09:46:12;;;;;;;;;2.00;1.50;;;;;6.56;100.00;99269.91;6309331;22;44681;-88
2022/04/08 09:48:38;;;;;;;;;1.00;1.00;;;;;6.47;100.00;99275.84;6280460;22;44879;-89
2022/04/08 09:51:05;;;;;;;;;1.00;1.00;;;;;6.43;100.00;99281.38;6304971;22;46956;-87
2022/04/08 09:53:31;;;;;;;;;2.00;2.00;;;;;6.36;100.00;99297.75;6310000;22;44713;-86
2022/04/08 09:55:58;;;;;;;;;6.50;3.50;;;;;6.34;100.00;99303.16;6314936;22;44780;-89
2022/04/08 09:58:27;;;;;;;;;2.00;2.00;;;;;6.35;100.00;99299.56;6286943;22;44848;-86
2022/04/08 10:00:53;;;;;;;;;4.25;4.25;;;;;6.32;100.00;99283.09;6317927;22;45269;-87
2022/04/08 10:03:19;;;;;;;;;5.00;2.25;;;;;6.32;100.00;99262.84;6280419;22;44714;-87
2022/04/08 10:05:45;;;;;;;;;2.75;1.00;;;;;6.34;100.00;99224.03;6306260;22;44842;-87
2022/04/08 10:08:10;;;;;;;;;2.25;2.00;;;;;6.43;100.00;99235.66;6278108;22;45264;-86
2022/04/08 10:10:48;;;;;;;;;7.25;4.75;;;;;6.56;100.00;99278.66;6304199;22;45246;-86
2022/04/08 10:13:24;;;;;;;;;1.00;1.00;;;;;6.47;100.00;99311.00;6306488;22;44688;-86
2022/04/08 10:16:01;;;;;;;;;5.25;4.50;;;;;6.40;100.00;99296.59;6282772;22;44827;-87
2022/04/08 10:18:42;;;;;;;;;5.00;5.00;;;;;6.35;100.00;99289.00;6286763;22;44802;-86
2022/04/08 10:21:10;;;;;;;;;5.50;4.25;;;;;6.35;100.00;99296.06;6315457;22;45204;-86
2022/04/08 10:23:58;;;;;;;;;3.00;3.00;;;;;6.30;100.00;99280.59;6287821;22;44761;-87
2022/04/08 10:26:25;;;;;;;;;14.00;10.00;;;;;6.29;100.00;99271.00;6313867;22;45188;-87
2022/04/08 10:28:53;;;;;;;;;6.00;6.00;;;;;6.31;100.00;99257.69;6313354;22;44828;-88
2022/04/08 10:31:18;;;;;;;;;2.00;2.00;;;;;6.31;100.00;99236.59;6292738;22;45551;-90
2022/04/08 10:33:54;;;;;;;;;2.50;2.50;;;;;6.27;100.00;99232.50;6290023;22;45188;-86
2022/04/08 10:36:52;;;;;;;;;3.75;3.00;;;;;6.30;100.00;99235.75;6290784;22;45196;-86
2022/04/08 10:39:23;;;;;;;;;2.25;1.00;;;;;6.26;100.00;99220.25;6312948;22;45556;-87
2022/04/08 10:42:00;;;;;;;;;5.00;3.75;;;;;6.39;100.00;99239.50;6283538;22;45205;-89
2022/04/08 10:44:37;;;;;;;;;3.75;3.75;;;;;6.50;100.00;99222.88;6283922;22;44765;-87
2022/04/08 10:47:16;;;;;;;;;4.75;2.00;;;;;6.59;100.00;99207.22;6313003;22;45254;-88
2022/04/08 10:49:49;;;;;;;;;2.25;2.25;;;;;6.68;100.00;99161.66;6310430;22;44885;-86
2022/04/08 10:52:16;;;;;;;;;3.00;3.00;;;;;6.84;100.00;99157.84;6315672;22;45323;-87
2022/04/08 10:54:42;;;;;;;;;2.00;2.00;;;;;7.04;100.00;99151.84;6287841;22;44682;-89
2022/04/08 10:57:07;;;;;;;;;3.00;3.00;;;;;7.31;100.00;99143.59;6290829;22;44662;-87
2022/04/08 10:59:33;;;;;;;;;4.75;4.75;;;;;7.53;100.00;99140.06;6321656;22;44817;-90
2022/04/08 11:02:02;;;;;;;;;6.00;5.00;;;;;7.78;100.00;99148.66;6290373;22;45137;-89
2022/04/08 11:04:29;;;;;;;;;5.25;5.25;;;;;7.80;100.00;99144.09;6294772;22;44712;-89
2022/04/08 11:06:55;;;;;;;;;2.25;2.25;;;;;7.72;100.00;99134.97;6324710;22;44643;-89
2022/04/08 11:09:23;;;;;;;;;6.00;4.00;;;;;7.66;100.00;99166.34;6298056;22;44940;-88
2022/04/08 11:11:53;;;;;;;;;6.50;6.50;;;;;7.53;100.00;99186.78;6325651;22;45001;-88
2022/04/08 11:14:19;;;;;;;;;8.50;6.00;;;;;7.40;100.00;99177.19;6324377;22;45205;-86
2022/04/08 11:16:47;;;;;;;;;7.50;4.50;;;;;7.36;100.00;99181.03;6289971;22;44716;-85
2022/04/08 11:19:19;;;;;;;;;4.00;4.00;;;;;7.37;100.00;99158.94;6287319;22;45572;-87
2022/04/08 11:21:47;;;;;;;;;6.25;4.75;;;;;7.51;100.00;99171.06;6313945;22;45300;-88
2022/04/08 11:24:14;;;;;;;;;4.50;4.50;;;;;7.69;100.00;99152.91;6316414;22;44802;-89
2022/04/08 11:26:45;;;;;;;;;2.00;2.00;;;;;7.86;100.00;99146.25;6322413;22;44643;-88
2022/04/08 11:29:14;;;;;;;;;4.75;4.75;;;;;7.99;100.00;99168.91;6266640;22;44845;-88
2022/04/08 11:31:40;;;;;;;;;5.00;3.00;;;;;7.97;100.00;99168.19;6292622;22;46221;-88
2022/04/08 11:34:07;;;;;;;;;7.75;6.50;;;;;7.85;100.00;99165.72;6319685;22;44737;-89
2022/04/08 11:36:33;;;;;;;;;7.00;5.00;;;;;7.99;100.00;99154.84;6321136;22;44690;-89
2022/04/08 11:38:59;;;;;;;;;5.00;5.00;;;;;8.13;100.00;99151.91;6289400;22;44935;-88
2022/04/08 11:41:25;;;;;;;;;6.25;4.75;;;;;8.41;100.00;99153.16;6315031;22;45544;-89
2022/04/08 11:43:52;;;;;;;;;5.75;4.50;;;;;8.62;100.00;99136.44;6286333;22;45117;-87
2022/04/08 11:46:17;;;;;;;;;0.00;0.00;;;;;8.63;100.00;99096.59;6316161;22;44759;-89
2022/04/08 11:48:44;;;;;;;;;5.00;5.00;;;;;8.64;100.00;99123.91;6320929;22;44828;-87
2022/04/08 11:51:10;;;;;;;;;4.25;4.25;;;;;8.58;100.00;99125.25;6314243;22;45011;-89
2022/04/08 11:53:43;;;;;;;;;6.00;5.00;;;;;8.53;100.00;99134.56;6285829;22;45079;-87
2022/04/08 11:56:09;;;;;;;;;6.25;6.25;;;;;8.39;100.00;99139.19;6306429;22;44709;-86
2022/04/08 11:58:53;;;;;;;;;7.50;4.25;;;;;8.34;100.00;99116.72;6280703;22;44820;-87
2022/04/08 12:01:19;;;;;;;;;4.50;4.50;;;;;8.20;100.00;99126.63;6312161;22;45358;-88
2022/04/08 12:03:44;;;;;;;;;5.75;4.75;;;;;8.18;100.00;99141.81;6316343;22;44681;-88
2022/04/08 12:06:09;;;;;;;;;5.00;5.00;;;;;8.20;100.00;99117.84;6285083;22;44636;-88
2022/04/08 12:08:35;;;;;;;;;7.00;7.00;;;;;8.33;100.00;99102.66;6285684;22;44908;-88
2022/04/08 12:11:01;;;;;;;;;5.50;5.50;;;;;8.53;100.00;99118.69;6314628;22;45065;-87
2022/04/08 12:13:29;;;;;;;;;9.75;8.75;;;;;8.80;100.00;99096.94;6319122;22;44750;-88
2022/04/08 12:15:56;;;;;;;;;10.25;8.50;;;;;8.94;100.00;99096.59;6318987;22;44748;-88
2022/04/08 12:18:24;;;;;;;;;10.00;10.00;;;;;9.11;100.00;99081.91;6318634;22;44778;-89
2022/04/08 12:20:59;;;;;;;;;9.00;9.00;;;;;9.30;100.00;99074.00;6315490;22;46773;-86
2022/04/08 12:23:26;;;;;;;;;7.25;7.25;;;;;9.39;100.00;99045.88;6290031;22;44920;-87
2022/04/08 12:25:54;;;;;;;;;8.25;7.75;;;;;9.40;100.00;99051.03;6292770;22;45353;-89
2022/04/08 12:28:24;;;;;;;;;12.00;10.50;;;;;9.46;100.00;99049.63;6320857;22;44761;-88
2022/04/08 12:30:50;;;;;;;;;11.00;10.00;;;;;9.47;100.00;99038.88;6318762;22;45214;-88
2022/04/08 12:33:17;;;;;;;;;11.50;10.50;;;;;9.39;100.00;99052.00;6316670;22;44749;-88
2022/04/08 12:35:43;;;;;;;;;11.50;10.50;;;;;9.35;100.00;99047.09;6290072;22;45204;-90
2022/04/08 12:38:09;;;;;;;;;11.75;11.00;;;;;9.40;100.00;99029.81;6316583;22;44673;-89
2022/04/08 12:40:34;;;;;;;;;12.75;12.50;;;;;9.42;100.00;99059.66;6292230;22;46596;-88
2022/04/08 12:43:01;;;;;;;;;15.75;13.50;;;;;9.12;100.00;99063.22;6320923;22;44814;-88
2022/04/08 12:45:28;;;;;;;;;4.75;4.50;;;;;8.81;100.00;99051.00;6317184;22;44673;-88
2022/04/08 12:47:53;;;;;;;;;11.25;10.25;;;;;8.43;100.00;99074.47;6319251;22;44764;-87
2022/04/08 12:50:19;;;;;;;;;10.00;7.75;;;;;8.18;100.00;99101.28;6292559;22;45427;-87